sensor_id;sensor_type;location;lat;lon;timestamp;P1;durP1;ratioP1;P2;durP2;ratioP2
48588;SDS011;34369;51.174;6.738;2023-06-10T00:00:09;26.60;;;24.60;;
48588;SDS011;34369;51.174;6.738;2023-06-10T00:02:44;26.23;;;24.33;;
48588;SDS011;34369;51.174;6.738;2023-06-10T00:05:17;27.10;;;25.00;;
48588;SDS011;34369;51.174;6.738;2023-06-10T00:07:51;26.10;;;24.20;;
48588;SDS011;34369;51.174;6.738;2023-06-10T00:10:25;28.05;;;25.75;;
48588;SDS011;34369;51.174;6.738;2023-06-10T00:12:57;26.83;;;24.73;;
48588;SDS011;34369;51.174;6.738;2023-06-10T00:15:31;26.60;;;24.50;;
48588;SDS011;34369;51.174;6.738;2023-06-10T00:18:03;26.38;;;24.48;;
48588;SDS011;34369;51.174;6.738;2023-06-10T00:20:35;26.70;;;24.60;;
48588;SDS011;34369;51.174;6.738;2023-06-10T00:23:09;27.48;;;25.48;;
48588;SDS011;34369;51.174;6.738;2023-06-10T00:25:43;28.67;;;26.58;;
48588;SDS011;34369;51.174;6.738;2023-06-10T00:28:15;27.13;;;25.23;;
48588;SDS011;34369;51.174;6.738;2023-06-10T00:30:50;27.60;;;25.50;;
48588;SDS011;34369;51.174;6.738;2023-06-10T00:33:23;26.77;;;24.88;;
48588;SDS011;34369;51.174;6.738;2023-06-10T00:36:09;28.48;;;26.27;;
48588;SDS011;34369;51.174;6.738;2023-06-10T00:38:42;27.85;;;25.83;;
48588;SDS011;34369;51.174;6.738;2023-06-10T00:41:14;28.75;;;26.65;;
48588;SDS011;34369;51.174;6.738;2023-06-10T00:43:46;28.13;;;25.92;;
48588;SDS011;34369;51.174;6.738;2023-06-10T00:46:22;27.48;;;25.55;;
48588;SDS011;34369;51.174;6.738;2023-06-10T00:48:56;27.88;;;25.77;;
48588;SDS011;34369;51.174;6.738;2023-06-10T00:51:30;28.38;;;26.38;;
48588;SDS011;34369;51.174;6.738;2023-06-10T00:54:02;27.95;;;25.95;;
48588;SDS011;34369;51.174;6.738;2023-06-10T00:56:36;28.90;;;26.80;;
48588;SDS011;34369;51.174;6.738;2023-06-10T00:59:12;28.55;;;26.45;;
48588;SDS011;34369;51.174;6.738;2023-06-10T01:01:46;29.10;;;26.83;;
48588;SDS011;34369;51.174;6.738;2023-06-10T01:04:22;28.00;;;25.92;;
48588;SDS011;34369;51.174;6.738;2023-06-10T01:06:57;29.10;;;27.10;;
48588;SDS011;34369;51.174;6.738;2023-06-10T01:09:40;28.92;;;26.40;;
48588;SDS011;34369;51.174;6.738;2023-06-10T01:12:19;29.90;;;27.52;;
48588;SDS011;34369;51.174;6.738;2023-06-10T01:14:58;29.50;;;27.15;;
48588;SDS011;34369;51.174;6.738;2023-06-10T01:17:34;29.65;;;27.50;;
48588;SDS011;34369;51.174;6.738;2023-06-10T01:20:09;29.58;;;27.27;;
48588;SDS011;34369;51.174;6.738;2023-06-10T01:23:01;29.13;;;26.85;;
48588;SDS011;34369;51.174;6.738;2023-06-10T01:25:36;29.23;;;27.02;;
48588;SDS011;34369;51.174;6.738;2023-06-10T01:28:12;30.08;;;27.40;;
48588;SDS011;34369;51.174;6.738;2023-06-10T01:30:55;30.38;;;27.85;;
48588;SDS011;34369;51.174;6.738;2023-06-10T01:33:41;30.02;;;27.42;;
48588;SDS011;34369;51.174;6.738;2023-06-10T01:36:18;30.63;;;28.13;;
48588;SDS011;34369;51.174;6.738;2023-06-10T01:38:54;28.23;;;26.27;;
48588;SDS011;34369;51.174;6.738;2023-06-10T01:41:27;29.05;;;26.77;;
48588;SDS011;34369;51.174;6.738;2023-06-10T01:44:00;30.05;;;27.73;;
48588;SDS011;34369;51.174;6.738;2023-06-10T01:46:32;29.95;;;27.60;;
48588;SDS011;34369;51.174;6.738;2023-06-10T01:49:05;29.77;;;27.40;;
48588;SDS011;34369;51.174;6.738;2023-06-10T01:51:37;30.08;;;27.73;;
48588;SDS011;34369;51.174;6.738;2023-06-10T01:54:11;31.15;;;28.65;;
48588;SDS011;34369;51.174;6.738;2023-06-10T01:56:43;30.05;;;27.95;;
48588;SDS011;34369;51.174;6.738;2023-06-10T01:59:15;30.30;;;27.90;;
48588;SDS011;34369;51.174;6.738;2023-06-10T02:01:48;29.90;;;27.60;;
48588;SDS011;34369;51.174;6.738;2023-06-10T02:04:20;30.90;;;28.27;;
48588;SDS011;34369;51.174;6.738;2023-06-10T02:06:52;30.92;;;28.55;;
48588;SDS011;34369;51.174;6.738;2023-06-10T02:09:27;30.77;;;28.58;;
48588;SDS011;34369;51.174;6.738;2023-06-10T02:12:07;31.02;;;28.73;;
48588;SDS011;34369;51.174;6.738;2023-06-10T02:14:41;30.33;;;28.23;;
48588;SDS011;34369;51.174;6.738;2023-06-10T02:17:15;31.20;;;28.70;;
48588;SDS011;34369;51.174;6.738;2023-06-10T02:19:47;30.73;;;28.42;;
48588;SDS011;34369;51.174;6.738;2023-06-10T02:22:22;30.65;;;28.50;;
48588;SDS011;34369;51.174;6.738;2023-06-10T02:24:56;30.05;;;27.85;;
48588;SDS011;34369;51.174;6.738;2023-06-10T02:27:29;30.13;;;28.08;;
48588;SDS011;34369;51.174;6.738;2023-06-10T02:30:01;30.75;;;28.45;;
48588;SDS011;34369;51.174;6.738;2023-06-10T02:32:34;30.67;;;28.48;;
48588;SDS011;34369;51.174;6.738;2023-06-10T02:35:06;30.50;;;28.30;;
48588;SDS011;34369;51.174;6.738;2023-06-10T02:37:42;30.38;;;28.17;;
48588;SDS011;34369;51.174;6.738;2023-06-10T02:40:16;31.88;;;29.48;;
48588;SDS011;34369;51.174;6.738;2023-06-10T02:42:48;31.38;;;29.10;;
48588;SDS011;34369;51.174;6.738;2023-06-10T02:45:21;31.38;;;29.08;;
48588;SDS011;34369;51.174;6.738;2023-06-10T02:47:54;31.52;;;29.33;;
48588;SDS011;34369;51.174;6.738;2023-06-10T02:50:27;30.92;;;28.70;;
48588;SDS011;34369;51.174;6.738;2023-06-10T02:52:59;32.13;;;29.75;;
48588;SDS011;34369;51.174;6.738;2023-06-10T02:55:33;31.85;;;29.58;;
48588;SDS011;34369;51.174;6.738;2023-06-10T02:58:06;31.40;;;29.20;;
48588;SDS011;34369;51.174;6.738;2023-06-10T03:00:39;31.40;;;29.10;;
48588;SDS011;34369;51.174;6.738;2023-06-10T03:03:13;31.77;;;29.58;;
48588;SDS011;34369;51.174;6.738;2023-06-10T03:05:46;31.73;;;29.42;;
48588;SDS011;34369;51.174;6.738;2023-06-10T03:08:18;31.90;;;29.60;;
48588;SDS011;34369;51.174;6.738;2023-06-10T03:10:52;31.67;;;29.33;;
48588;SDS011;34369;51.174;6.738;2023-06-10T03:13:25;32.78;;;30.48;;
48588;SDS011;34369;51.174;6.738;2023-06-10T03:15:57;33.35;;;30.58;;
48588;SDS011;34369;51.174;6.738;2023-06-10T03:18:29;33.47;;;30.55;;
48588;SDS011;34369;51.174;6.738;2023-06-10T03:21:02;32.17;;;29.65;;
48588;SDS011;34369;51.174;6.738;2023-06-10T03:23:35;32.30;;;29.92;;
48588;SDS011;34369;51.174;6.738;2023-06-10T03:26:09;32.67;;;30.23;;
48588;SDS011;34369;51.174;6.738;2023-06-10T03:28:43;32.87;;;30.37;;
48588;SDS011;34369;51.174;6.738;2023-06-10T03:31:15;32.38;;;30.02;;
48588;SDS011;34369;51.174;6.738;2023-06-10T03:33:52;32.65;;;30.35;;
48588;SDS011;34369;51.174;6.738;2023-06-10T03:36:24;32.55;;;30.05;;
48588;SDS011;34369;51.174;6.738;2023-06-10T03:38:59;33.03;;;30.52;;
48588;SDS011;34369;51.174;6.738;2023-06-10T03:41:32;31.85;;;29.55;;
48588;SDS011;34369;51.174;6.738;2023-06-10T03:44:04;32.78;;;30.40;;
48588;SDS011;34369;51.174;6.738;2023-06-10T03:46:36;32.85;;;30.35;;
48588;SDS011;34369;51.174;6.738;2023-06-10T03:49:09;33.30;;;30.88;;
48588;SDS011;34369;51.174;6.738;2023-06-10T03:51:41;32.90;;;30.60;;
48588;SDS011;34369;51.174;6.738;2023-06-10T03:54:14;32.90;;;30.50;;
48588;SDS011;34369;51.174;6.738;2023-06-10T03:56:50;32.15;;;29.77;;
48588;SDS011;34369;51.174;6.738;2023-06-10T03:59:22;32.75;;;29.80;;
48588;SDS011;34369;51.174;6.738;2023-06-10T04:01:54;32.00;;;29.60;;
48588;SDS011;34369;51.174;6.738;2023-06-10T04:04:27;31.15;;;28.85;;
48588;SDS011;34369;51.174;6.738;2023-06-10T04:07:00;32.22;;;29.77;;
48588;SDS011;34369;51.174;6.738;2023-06-10T04:09:34;33.70;;;30.67;;
48588;SDS011;34369;51.174;6.738;2023-06-10T04:12:10;32.07;;;29.67;;
48588;SDS011;34369;51.174;6.738;2023-06-10T04:14:43;31.95;;;29.65;;
48588;SDS011;34369;51.174;6.738;2023-06-10T04:17:17;32.83;;;30.20;;
48588;SDS011;34369;51.174;6.738;2023-06-10T04:19:49;32.70;;;30.30;;
48588;SDS011;34369;51.174;6.738;2023-06-10T04:22:22;33.25;;;30.90;;
48588;SDS011;34369;51.174;6.738;2023-06-10T04:24:54;30.67;;;28.35;;
48588;SDS011;34369;51.174;6.738;2023-06-10T04:27:28;31.00;;;28.70;;
48588;SDS011;34369;51.174;6.738;2023-06-10T04:30:01;32.10;;;29.52;;
48588;SDS011;34369;51.174;6.738;2023-06-10T04:32:34;32.22;;;29.83;;
48588;SDS011;34369;51.174;6.738;2023-06-10T04:35:07;33.28;;;30.75;;
48588;SDS011;34369;51.174;6.738;2023-06-10T04:41:15;31.08;;;28.77;;
48588;SDS011;34369;51.174;6.738;2023-06-10T04:43:48;31.40;;;29.10;;
48588;SDS011;34369;51.174;6.738;2023-06-10T04:46:21;31.85;;;29.63;;
48588;SDS011;34369;51.174;6.738;2023-06-10T04:48:54;31.55;;;29.17;;
48588;SDS011;34369;51.174;6.738;2023-06-10T04:51:26;31.77;;;29.33;;
48588;SDS011;34369;51.174;6.738;2023-06-10T04:53:59;31.50;;;29.23;;
48588;SDS011;34369;51.174;6.738;2023-06-10T04:56:33;30.38;;;28.20;;
48588;SDS011;34369;51.174;6.738;2023-06-10T04:59:09;30.63;;;28.50;;
48588;SDS011;34369;51.174;6.738;2023-06-10T05:01:42;31.20;;;28.88;;
48588;SDS011;34369;51.174;6.738;2023-06-10T05:04:16;31.50;;;29.20;;
48588;SDS011;34369;51.174;6.738;2023-06-10T05:06:50;31.17;;;28.55;;
48588;SDS011;34369;51.174;6.738;2023-06-10T05:09:23;32.08;;;27.35;;
48588;SDS011;34369;51.174;6.738;2023-06-10T05:11:56;35.33;;;28.13;;
48588;SDS011;34369;51.174;6.738;2023-06-10T05:14:29;34.30;;;29.15;;
48588;SDS011;34369;51.174;6.738;2023-06-10T05:17:02;33.13;;;29.85;;
48588;SDS011;34369;51.174;6.738;2023-06-10T05:19:36;32.03;;;28.80;;
48588;SDS011;34369;51.174;6.738;2023-06-10T05:22:08;31.85;;;28.92;;
48588;SDS011;34369;51.174;6.738;2023-06-10T05:24:41;32.30;;;29.55;;
48588;SDS011;34369;51.174;6.738;2023-06-10T05:27:14;30.58;;;28.10;;
48588;SDS011;34369;51.174;6.738;2023-06-10T05:29:50;30.45;;;28.02;;
48588;SDS011;34369;51.174;6.738;2023-06-10T05:32:22;30.52;;;28.17;;
48588;SDS011;34369;51.174;6.738;2023-06-10T05:34:54;29.52;;;27.02;;
48588;SDS011;34369;51.174;6.738;2023-06-10T05:37:27;29.38;;;27.17;;
48588;SDS011;34369;51.174;6.738;2023-06-10T05:39:59;28.80;;;26.70;;
48588;SDS011;34369;51.174;6.738;2023-06-10T05:42:31;29.38;;;27.13;;
48588;SDS011;34369;51.174;6.738;2023-06-10T05:45:05;28.35;;;26.05;;
48588;SDS011;34369;51.174;6.738;2023-06-10T05:47:39;28.42;;;26.33;;
48588;SDS011;34369;51.174;6.738;2023-06-10T05:50:11;29.27;;;26.83;;
48588;SDS011;34369;51.174;6.738;2023-06-10T05:52:43;29.20;;;26.90;;
48588;SDS011;34369;51.174;6.738;2023-06-10T05:55:20;28.17;;;26.08;;
48588;SDS011;34369;51.174;6.738;2023-06-10T05:58:00;27.48;;;25.27;;
48588;SDS011;34369;51.174;6.738;2023-06-10T06:00:36;27.70;;;25.35;;
48588;SDS011;34369;51.174;6.738;2023-06-10T06:03:08;26.58;;;24.63;;
48588;SDS011;34369;51.174;6.738;2023-06-10T06:05:41;27.67;;;25.30;;
48588;SDS011;34369;51.174;6.738;2023-06-10T06:08:14;26.83;;;24.83;;
48588;SDS011;34369;51.174;6.738;2023-06-10T06:10:49;27.15;;;24.95;;
48588;SDS011;34369;51.174;6.738;2023-06-10T06:13:22;26.17;;;24.08;;
48588;SDS011;34369;51.174;6.738;2023-06-10T06:15:56;27.35;;;25.08;;
48588;SDS011;34369;51.174;6.738;2023-06-10T06:18:28;26.58;;;24.58;;
48588;SDS011;34369;51.174;6.738;2023-06-10T06:21:01;26.40;;;24.35;;
48588;SDS011;34369;51.174;6.738;2023-06-10T06:23:33;25.90;;;23.92;;
48588;SDS011;34369;51.174;6.738;2023-06-10T06:26:05;26.33;;;24.27;;
48588;SDS011;34369;51.174;6.738;2023-06-10T06:28:38;26.60;;;24.40;;
48588;SDS011;34369;51.174;6.738;2023-06-10T06:31:12;25.77;;;23.85;;
48588;SDS011;34369;51.174;6.738;2023-06-10T06:33:45;25.95;;;24.05;;
48588;SDS011;34369;51.174;6.738;2023-06-10T06:36:18;26.45;;;24.42;;
48588;SDS011;34369;51.174;6.738;2023-06-10T06:38:53;26.33;;;24.33;;
48588;SDS011;34369;51.174;6.738;2023-06-10T06:41:28;26.35;;;24.45;;
48588;SDS011;34369;51.174;6.738;2023-06-10T06:44:13;27.08;;;24.45;;
48588;SDS011;34369;51.174;6.738;2023-06-10T06:46:47;25.65;;;23.75;;
48588;SDS011;34369;51.174;6.738;2023-06-10T06:49:19;25.75;;;23.85;;
48588;SDS011;34369;51.174;6.738;2023-06-10T06:51:52;25.88;;;23.77;;
48588;SDS011;34369;51.174;6.738;2023-06-10T06:54:27;25.30;;;23.40;;
48588;SDS011;34369;51.174;6.738;2023-06-10T07:00:17;24.60;;;22.70;;
48588;SDS011;34369;51.174;6.738;2023-06-10T07:02:55;25.13;;;23.20;;
48588;SDS011;34369;51.174;6.738;2023-06-10T07:05:29;25.10;;;23.15;;
48588;SDS011;34369;51.174;6.738;2023-06-10T07:08:01;25.20;;;23.30;;
48588;SDS011;34369;51.174;6.738;2023-06-10T07:10:34;25.13;;;23.23;;
48588;SDS011;34369;51.174;6.738;2023-06-10T07:13:06;24.73;;;22.73;;
48588;SDS011;34369;51.174;6.738;2023-06-10T07:15:38;24.88;;;22.98;;
48588;SDS011;34369;51.174;6.738;2023-06-10T07:18:14;25.05;;;23.05;;
48588;SDS011;34369;51.174;6.738;2023-06-10T07:20:48;25.13;;;23.23;;
48588;SDS011;34369;51.174;6.738;2023-06-10T07:23:23;24.58;;;22.58;;
48588;SDS011;34369;51.174;6.738;2023-06-10T07:25:58;23.87;;;22.00;;
48588;SDS011;34369;51.174;6.738;2023-06-10T07:28:54;24.70;;;22.67;;
48588;SDS011;34369;51.174;6.738;2023-06-10T07:32:11;24.48;;;22.58;;
48588;SDS011;34369;51.174;6.738;2023-06-10T07:35:02;24.55;;;22.55;;
48588;SDS011;34369;51.174;6.738;2023-06-10T07:38:03;24.40;;;22.40;;
48588;SDS011;34369;51.174;6.738;2023-06-10T07:40:37;24.00;;;22.13;;
48588;SDS011;34369;51.174;6.738;2023-06-10T07:43:10;25.00;;;22.98;;
48588;SDS011;34369;51.174;6.738;2023-06-10T07:45:42;24.30;;;22.38;;
48588;SDS011;34369;51.174;6.738;2023-06-10T07:48:28;23.75;;;21.92;;
48588;SDS011;34369;51.174;6.738;2023-06-10T07:51:10;23.38;;;21.58;;
48588;SDS011;34369;51.174;6.738;2023-06-10T07:53:42;23.45;;;21.55;;
48588;SDS011;34369;51.174;6.738;2023-06-10T07:56:16;22.85;;;21.05;;
48588;SDS011;34369;51.174;6.738;2023-06-10T07:58:49;23.08;;;21.17;;
48588;SDS011;34369;51.174;6.738;2023-06-10T08:01:22;22.33;;;20.42;;
48588;SDS011;34369;51.174;6.738;2023-06-10T08:03:56;21.77;;;19.98;;
48588;SDS011;34369;51.174;6.738;2023-06-10T08:06:31;21.83;;;19.90;;
48588;SDS011;34369;51.174;6.738;2023-06-10T08:09:03;21.00;;;19.30;;
48588;SDS011;34369;51.174;6.738;2023-06-10T08:11:35;20.45;;;18.67;;
48588;SDS011;34369;51.174;6.738;2023-06-10T08:14:08;20.63;;;19.00;;
48588;SDS011;34369;51.174;6.738;2023-06-10T08:16:56;20.92;;;19.05;;
48588;SDS011;34369;51.174;6.738;2023-06-10T08:19:30;20.25;;;18.55;;
48588;SDS011;34369;51.174;6.738;2023-06-10T08:22:04;20.42;;;18.73;;
48588;SDS011;34369;51.174;6.738;2023-06-10T08:24:38;20.88;;;19.15;;
48588;SDS011;34369;51.174;6.738;2023-06-10T08:27:14;20.20;;;18.60;;
48588;SDS011;34369;51.174;6.738;2023-06-10T08:29:47;24.25;;;19.48;;
48588;SDS011;34369;51.174;6.738;2023-06-10T08:32:19;20.20;;;18.50;;
48588;SDS011;34369;51.174;6.738;2023-06-10T08:34:51;20.77;;;18.67;;
48588;SDS011;34369;51.174;6.738;2023-06-10T08:37:25;19.27;;;17.58;;
48588;SDS011;34369;51.174;6.738;2023-06-10T08:39:57;20.13;;;18.38;;
48588;SDS011;34369;51.174;6.738;2023-06-10T08:42:32;20.27;;;18.58;;
48588;SDS011;34369;51.174;6.738;2023-06-10T08:45:07;19.70;;;18.10;;
48588;SDS011;34369;51.174;6.738;2023-06-10T08:47:49;19.50;;;17.67;;
48588;SDS011;34369;51.174;6.738;2023-06-10T08:50:23;19.77;;;17.98;;
48588;SDS011;34369;51.174;6.738;2023-06-10T08:52:57;19.38;;;17.67;;
48588;SDS011;34369;51.174;6.738;2023-06-10T08:55:31;19.95;;;18.10;;
48588;SDS011;34369;51.174;6.738;2023-06-10T08:58:07;18.83;;;17.20;;
48588;SDS011;34369;51.174;6.738;2023-06-10T09:00:40;19.27;;;17.67;;
48588;SDS011;34369;51.174;6.738;2023-06-10T09:03:12;19.15;;;17.45;;
48588;SDS011;34369;51.174;6.738;2023-06-10T09:05:45;19.20;;;17.60;;
48588;SDS011;34369;51.174;6.738;2023-06-10T09:08:20;18.33;;;16.63;;
48588;SDS011;34369;51.174;6.738;2023-06-10T09:10:52;17.63;;;16.13;;
48588;SDS011;34369;51.174;6.738;2023-06-10T09:13:24;18.25;;;16.75;;
48588;SDS011;34369;51.174;6.738;2023-06-10T09:15:57;18.75;;;17.13;;
48588;SDS011;34369;51.174;6.738;2023-06-10T09:18:31;18.40;;;16.70;;
48588;SDS011;34369;51.174;6.738;2023-06-10T09:21:04;17.55;;;16.05;;
48588;SDS011;34369;51.174;6.738;2023-06-10T09:23:38;18.25;;;16.65;;
48588;SDS011;34369;51.174;6.738;2023-06-10T09:26:10;17.35;;;15.85;;
48588;SDS011;34369;51.174;6.738;2023-06-10T09:28:43;17.80;;;16.20;;
48588;SDS011;34369;51.174;6.738;2023-06-10T09:31:16;17.73;;;16.23;;
48588;SDS011;34369;51.174;6.738;2023-06-10T09:33:51;18.00;;;16.35;;
48588;SDS011;34369;51.174;6.738;2023-06-10T09:36:24;18.00;;;16.40;;
48588;SDS011;34369;51.174;6.738;2023-06-10T09:39:00;17.92;;;16.27;;
48588;SDS011;34369;51.174;6.738;2023-06-10T09:41:33;18.50;;;16.90;;
48588;SDS011;34369;51.174;6.738;2023-06-10T09:44:25;17.65;;;16.05;;
48588;SDS011;34369;51.174;6.738;2023-06-10T09:47:07;18.83;;;17.23;;
48588;SDS011;34369;51.174;6.738;2023-06-10T09:49:54;18.15;;;16.55;;
48588;SDS011;34369;51.174;6.738;2023-06-10T09:52:27;18.55;;;16.85;;
48588;SDS011;34369;51.174;6.738;2023-06-10T09:55:01;19.00;;;17.20;;
48588;SDS011;34369;51.174;6.738;2023-06-10T09:57:35;18.65;;;17.05;;
48588;SDS011;34369;51.174;6.738;2023-06-10T10:00:11;18.90;;;17.30;;
48588;SDS011;34369;51.174;6.738;2023-06-10T10:02:48;19.17;;;17.58;;
48588;SDS011;34369;51.174;6.738;2023-06-10T10:05:24;23.52;;;18.38;;
48588;SDS011;34369;51.174;6.738;2023-06-10T10:07:56;19.30;;;17.50;;
48588;SDS011;34369;51.174;6.738;2023-06-10T10:10:31;19.30;;;17.42;;
48588;SDS011;34369;51.174;6.738;2023-06-10T10:13:03;18.73;;;17.23;;
48588;SDS011;34369;51.174;6.738;2023-06-10T10:15:36;20.02;;;18.33;;
48588;SDS011;34369;51.174;6.738;2023-06-10T10:18:11;20.20;;;18.50;;
48588;SDS011;34369;51.174;6.738;2023-06-10T10:20:50;19.70;;;17.90;;
48588;SDS011;34369;51.174;6.738;2023-06-10T10:23:26;19.55;;;17.85;;
48588;SDS011;34369;51.174;6.738;2023-06-10T10:26:07;19.80;;;18.00;;
48588;SDS011;34369;51.174;6.738;2023-06-10T10:28:44;19.88;;;18.08;;
48588;SDS011;34369;51.174;6.738;2023-06-10T10:31:24;19.38;;;17.77;;
48588;SDS011;34369;51.174;6.738;2023-06-10T10:33:59;19.83;;;18.02;;
48588;SDS011;34369;51.174;6.738;2023-06-10T10:36:37;20.13;;;18.23;;
48588;SDS011;34369;51.174;6.738;2023-06-10T10:39:11;19.83;;;18.05;;
48588;SDS011;34369;51.174;6.738;2023-06-10T10:41:47;19.58;;;17.98;;
48588;SDS011;34369;51.174;6.738;2023-06-10T10:44:22;19.70;;;17.90;;
48588;SDS011;34369;51.174;6.738;2023-06-10T10:46:55;19.60;;;17.83;;
48588;SDS011;34369;51.174;6.738;2023-06-10T10:49:30;18.95;;;17.25;;
48588;SDS011;34369;51.174;6.738;2023-06-10T10:52:04;18.75;;;17.15;;
48588;SDS011;34369;51.174;6.738;2023-06-10T10:54:43;18.83;;;17.13;;
48588;SDS011;34369;51.174;6.738;2023-06-10T10:57:19;18.77;;;17.17;;
48588;SDS011;34369;51.174;6.738;2023-06-10T10:59:55;19.13;;;17.52;;
48588;SDS011;34369;51.174;6.738;2023-06-10T11:02:40;19.60;;;17.80;;
48588;SDS011;34369;51.174;6.738;2023-06-10T11:05:14;19.30;;;17.60;;
48588;SDS011;34369;51.174;6.738;2023-06-10T11:07:54;18.90;;;17.23;;
48588;SDS011;34369;51.174;6.738;2023-06-10T11:10:28;19.42;;;17.73;;
48588;SDS011;34369;51.174;6.738;2023-06-10T11:13:09;19.55;;;17.88;;
48588;SDS011;34369;51.174;6.738;2023-06-10T11:15:47;19.35;;;17.52;;
48588;SDS011;34369;51.174;6.738;2023-06-10T11:18:27;19.42;;;17.63;;
48588;SDS011;34369;51.174;6.738;2023-06-10T11:21:02;18.38;;;16.75;;
48588;SDS011;34369;51.174;6.738;2023-06-10T11:23:39;18.63;;;17.02;;
48588;SDS011;34369;51.174;6.738;2023-06-10T11:26:20;18.75;;;17.15;;
48588;SDS011;34369;51.174;6.738;2023-06-10T11:29:09;18.10;;;16.50;;
48588;SDS011;34369;51.174;6.738;2023-06-10T11:31:43;18.70;;;17.10;;
48588;SDS011;34369;51.174;6.738;2023-06-10T11:34:21;18.60;;;16.98;;
48588;SDS011;34369;51.174;6.738;2023-06-10T11:36:57;19.08;;;17.48;;
48588;SDS011;34369;51.174;6.738;2023-06-10T11:39:31;18.90;;;17.25;;
48588;SDS011;34369;51.174;6.738;2023-06-10T11:42:06;18.35;;;16.75;;
48588;SDS011;34369;51.174;6.738;2023-06-10T11:44:43;17.92;;;16.42;;
48588;SDS011;34369;51.174;6.738;2023-06-10T11:47:26;18.25;;;16.50;;
48588;SDS011;34369;51.174;6.738;2023-06-10T11:49:58;18.65;;;16.90;;
48588;SDS011;34369;51.174;6.738;2023-06-10T11:52:31;18.33;;;16.73;;
48588;SDS011;34369;51.174;6.738;2023-06-10T11:55:08;18.90;;;17.20;;
48588;SDS011;34369;51.174;6.738;2023-06-10T11:57:40;18.42;;;16.83;;
48588;SDS011;34369;51.174;6.738;2023-06-10T12:00:15;18.63;;;16.92;;
48588;SDS011;34369;51.174;6.738;2023-06-10T12:02:54;19.88;;;17.88;;
48588;SDS011;34369;51.174;6.738;2023-06-10T12:05:28;19.33;;;17.73;;
48588;SDS011;34369;51.174;6.738;2023-06-10T12:08:10;19.27;;;17.60;;
48588;SDS011;34369;51.174;6.738;2023-06-10T12:10:43;20.35;;;18.63;;
48588;SDS011;34369;51.174;6.738;2023-06-10T12:13:17;20.05;;;18.25;;
48588;SDS011;34369;51.174;6.738;2023-06-10T12:15:50;19.35;;;17.60;;
48588;SDS011;34369;51.174;6.738;2023-06-10T12:18:23;19.42;;;17.83;;
48588;SDS011;34369;51.174;6.738;2023-06-10T12:20:57;20.00;;;18.30;;
48588;SDS011;34369;51.174;6.738;2023-06-10T12:23:29;19.40;;;17.80;;
48588;SDS011;34369;51.174;6.738;2023-06-10T12:28:38;19.98;;;18.27;;
48588;SDS011;34369;51.174;6.738;2023-06-10T12:31:24;19.25;;;17.55;;
48588;SDS011;34369;51.174;6.738;2023-06-10T12:34:07;20.10;;;18.40;;
48588;SDS011;34369;51.174;6.738;2023-06-10T12:36:39;19.88;;;18.20;;
48588;SDS011;34369;51.174;6.738;2023-06-10T12:39:20;19.92;;;18.30;;
48588;SDS011;34369;51.174;6.738;2023-06-10T12:41:53;20.20;;;18.60;;
48588;SDS011;34369;51.174;6.738;2023-06-10T12:44:30;20.20;;;18.40;;
48588;SDS011;34369;51.174;6.738;2023-06-10T12:47:17;20.08;;;18.35;;
48588;SDS011;34369;51.174;6.738;2023-06-10T12:50:05;19.83;;;18.20;;
48588;SDS011;34369;51.174;6.738;2023-06-10T12:52:40;19.23;;;17.63;;
48588;SDS011;34369;51.174;6.738;2023-06-10T12:55:12;20.33;;;18.63;;
48588;SDS011;34369;51.174;6.738;2023-06-10T12:57:48;20.08;;;18.38;;
48588;SDS011;34369;51.174;6.738;2023-06-10T13:00:24;20.05;;;18.35;;
48588;SDS011;34369;51.174;6.738;2023-06-10T13:03:06;19.40;;;17.80;;
48588;SDS011;34369;51.174;6.738;2023-06-10T13:05:46;19.83;;;18.10;;
48588;SDS011;34369;51.174;6.738;2023-06-10T13:08:19;19.40;;;17.80;;
48588;SDS011;34369;51.174;6.738;2023-06-10T13:10:52;19.55;;;17.95;;
48588;SDS011;34369;51.174;6.738;2023-06-10T13:13:25;19.23;;;17.42;;
48588;SDS011;34369;51.174;6.738;2023-06-10T13:15:59;19.35;;;17.75;;
48588;SDS011;34369;51.174;6.738;2023-06-10T13:18:34;19.48;;;17.65;;
48588;SDS011;34369;51.174;6.738;2023-06-10T13:21:08;19.30;;;17.70;;
48588;SDS011;34369;51.174;6.738;2023-06-10T13:23:43;19.08;;;17.48;;
48588;SDS011;34369;51.174;6.738;2023-06-10T13:26:17;19.48;;;17.67;;
48588;SDS011;34369;51.174;6.738;2023-06-10T13:28:50;19.08;;;17.38;;
48588;SDS011;34369;51.174;6.738;2023-06-10T13:31:22;18.20;;;16.70;;
48588;SDS011;34369;51.174;6.738;2023-06-10T13:33:56;19.00;;;17.20;;
48588;SDS011;34369;51.174;6.738;2023-06-10T13:36:29;18.92;;;17.33;;
48588;SDS011;34369;51.174;6.738;2023-06-10T13:39:03;19.10;;;17.40;;
48588;SDS011;34369;51.174;6.738;2023-06-10T13:41:35;18.65;;;17.05;;
48588;SDS011;34369;51.174;6.738;2023-06-10T13:44:08;19.48;;;17.67;;
48588;SDS011;34369;51.174;6.738;2023-06-10T13:46:40;19.30;;;17.70;;
48588;SDS011;34369;51.174;6.738;2023-06-10T13:49:18;18.92;;;17.38;;
48588;SDS011;34369;51.174;6.738;2023-06-10T13:51:55;18.67;;;17.17;;
48588;SDS011;34369;51.174;6.738;2023-06-10T13:54:27;19.10;;;17.40;;
48588;SDS011;34369;51.174;6.738;2023-06-10T13:57:02;18.08;;;16.38;;
48588;SDS011;34369;51.174;6.738;2023-06-10T13:59:40;19.65;;;17.88;;
48588;SDS011;34369;51.174;6.738;2023-06-10T14:02:46;19.75;;;18.15;;
48588;SDS011;34369;51.174;6.738;2023-06-10T14:05:28;20.35;;;18.65;;
48588;SDS011;34369;51.174;6.738;2023-06-10T14:08:00;18.83;;;17.17;;
48588;SDS011;34369;51.174;6.738;2023-06-10T14:10:33;19.35;;;17.65;;
48588;SDS011;34369;51.174;6.738;2023-06-10T14:13:06;19.45;;;17.73;;
48588;SDS011;34369;51.174;6.738;2023-06-10T14:15:39;19.25;;;17.55;;
48588;SDS011;34369;51.174;6.738;2023-06-10T14:18:13;19.25;;;17.38;;
48588;SDS011;34369;51.174;6.738;2023-06-10T14:20:47;20.40;;;18.10;;
48588;SDS011;34369;51.174;6.738;2023-06-10T14:23:19;20.13;;;18.30;;
48588;SDS011;34369;51.174;6.738;2023-06-10T14:25:51;19.58;;;17.98;;
48588;SDS011;34369;51.174;6.738;2023-06-10T14:28:24;19.70;;;18.10;;
48588;SDS011;34369;51.174;6.738;2023-06-10T14:30:57;19.75;;;18.15;;
48588;SDS011;34369;51.174;6.738;2023-06-10T14:33:29;19.95;;;18.35;;
48588;SDS011;34369;51.174;6.738;2023-06-10T14:36:03;19.65;;;17.85;;
48588;SDS011;34369;51.174;6.738;2023-06-10T14:38:36;19.60;;;17.90;;
48588;SDS011;34369;51.174;6.738;2023-06-10T14:41:08;20.10;;;18.45;;
48588;SDS011;34369;51.174;6.738;2023-06-10T14:43:40;20.85;;;19.05;;
48588;SDS011;34369;51.174;6.738;2023-06-10T14:46:12;20.05;;;18.30;;
48588;SDS011;34369;51.174;6.738;2023-06-10T14:48:44;19.35;;;17.75;;
48588;SDS011;34369;51.174;6.738;2023-06-10T14:51:18;19.02;;;17.42;;
48588;SDS011;34369;51.174;6.738;2023-06-10T14:53:51;19.70;;;17.90;;
48588;SDS011;34369;51.174;6.738;2023-06-10T14:56:26;18.67;;;17.17;;
48588;SDS011;34369;51.174;6.738;2023-06-10T14:59:03;19.45;;;17.65;;
48588;SDS011;34369;51.174;6.738;2023-06-10T15:01:36;19.80;;;18.00;;
48588;SDS011;34369;51.174;6.738;2023-06-10T15:04:09;19.73;;;18.13;;
48588;SDS011;34369;51.174;6.738;2023-06-10T15:06:47;20.00;;;18.20;;
48588;SDS011;34369;51.174;6.738;2023-06-10T15:09:20;19.88;;;18.15;;
48588;SDS011;34369;51.174;6.738;2023-06-10T15:11:55;19.83;;;18.02;;
48588;SDS011;34369;51.174;6.738;2023-06-10T15:14:30;20.10;;;18.45;;